sensor_id;sensor_type;location;lat;lon;timestamp;pressure;altitude;pressure_sealevel;temperature
13427;BMP180;6785;57.918;12.530;2023-06-10T00:02:21;101338.00;;;12.20
13427;BMP180;6785;57.918;12.530;2023-06-10T00:04:48;101343.00;;;12.10
13427;BMP180;6785;57.918;12.530;2023-06-10T00:07:15;101342.00;;;12.00
13427;BMP180;6785;57.918;12.530;2023-06-10T00:09:42;101341.00;;;12.00
13427;BMP180;6785;57.918;12.530;2023-06-10T00:12:10;101338.00;;;11.90
13427;BMP180;6785;57.918;12.530;2023-06-10T00:14:39;101335.00;;;11.90
13427;BMP180;6785;57.918;12.530;2023-06-10T00:17:07;101348.00;;;12.00
13427;BMP180;6785;57.918;12.530;2023-06-10T00:19:35;101347.00;;;11.90
13427;BMP180;6785;57.918;12.530;2023-06-10T00:22:03;101348.00;;;11.80
13427;BMP180;6785;57.918;12.530;2023-06-10T00:24:30;101344.00;;;11.80
13427;BMP180;6785;57.918;12.530;2023-06-10T00:26:57;101347.00;;;11.70
13427;BMP180;6785;57.918;12.530;2023-06-10T00:29:24;101344.00;;;11.70
13427;BMP180;6785;57.918;12.530;2023-06-10T00:31:51;101347.00;;;11.70
13427;BMP180;6785;57.918;12.530;2023-06-10T00:34:21;101341.00;;;11.60
13427;BMP180;6785;57.918;12.530;2023-06-10T00:36:48;101347.00;;;11.50
13427;BMP180;6785;57.918;12.530;2023-06-10T00:39:15;101360.00;;;11.60
13427;BMP180;6785;57.918;12.530;2023-06-10T00:41:42;101352.00;;;11.40
13427;BMP180;6785;57.918;12.530;2023-06-10T00:44:09;101351.00;;;11.40
13427;BMP180;6785;57.918;12.530;2023-06-10T00:46:36;101349.00;;;11.20
13427;BMP180;6785;57.918;12.530;2023-06-10T00:49:03;101364.00;;;11.20
13427;BMP180;6785;57.918;12.530;2023-06-10T00:51:32;101369.00;;;11.10
13427;BMP180;6785;57.918;12.530;2023-06-10T00:53:59;101367.00;;;11.10
13427;BMP180;6785;57.918;12.530;2023-06-10T00:56:26;101364.00;;;11.00
13427;BMP180;6785;57.918;12.530;2023-06-10T00:58:54;101365.00;;;11.00
13427;BMP180;6785;57.918;12.530;2023-06-10T01:01:21;101371.00;;;10.90
13427;BMP180;6785;57.918;12.530;2023-06-10T01:03:49;101374.00;;;10.80
13427;BMP180;6785;57.918;12.530;2023-06-10T01:06:44;101381.00;;;10.80
13427;BMP180;6785;57.918;12.530;2023-06-10T01:09:23;101376.00;;;10.80
13427;BMP180;6785;57.918;12.530;2023-06-10T01:12:01;101375.00;;;10.70
13427;BMP180;6785;57.918;12.530;2023-06-10T01:14:33;101383.00;;;10.70
13427;BMP180;6785;57.918;12.530;2023-06-10T01:17:02;101383.00;;;10.70
13427;BMP180;6785;57.918;12.530;2023-06-10T01:19:30;101385.00;;;10.70
13427;BMP180;6785;57.918;12.530;2023-06-10T01:21:59;101387.00;;;10.70
13427;BMP180;6785;57.918;12.530;2023-06-10T01:24:26;101384.00;;;10.50
13427;BMP180;6785;57.918;12.530;2023-06-10T01:26:58;101382.00;;;10.50
13427;BMP180;6785;57.918;12.530;2023-06-10T01:29:33;101388.00;;;10.40
13427;BMP180;6785;57.918;12.530;2023-06-10T01:32:12;101390.00;;;10.40
13427;BMP180;6785;57.918;12.530;2023-06-10T01:34:42;101385.00;;;10.40
13427;BMP180;6785;57.918;12.530;2023-06-10T01:37:16;101388.00;;;10.40
13427;BMP180;6785;57.918;12.530;2023-06-10T01:39:46;101383.00;;;10.30
13427;BMP180;6785;57.918;12.530;2023-06-10T01:42:15;101386.00;;;10.30
13427;BMP180;6785;57.918;12.530;2023-06-10T01:44:42;101382.00;;;10.10
13427;BMP180;6785;57.918;12.530;2023-06-10T01:47:09;101376.00;;;10.10
13427;BMP180;6785;57.918;12.530;2023-06-10T01:49:36;101373.00;;;10.10
13427;BMP180;6785;57.918;12.530;2023-06-10T01:52:04;101380.00;;;10.00
13427;BMP180;6785;57.918;12.530;2023-06-10T01:54:33;101386.00;;;10.00
13427;BMP180;6785;57.918;12.530;2023-06-10T01:57:01;101378.00;;;9.90
13427;BMP180;6785;57.918;12.530;2023-06-10T01:59:28;101382.00;;;9.90
13427;BMP180;6785;57.918;12.530;2023-06-10T02:01:55;101387.00;;;9.80
13427;BMP180;6785;57.918;12.530;2023-06-10T02:04:22;101387.00;;;9.80
13427;BMP180;6785;57.918;12.530;2023-06-10T02:06:49;101388.00;;;9.70
13427;BMP180;6785;57.918;12.530;2023-06-10T02:09:16;101384.00;;;9.70
13427;BMP180;6785;57.918;12.530;2023-06-10T02:11:45;101389.00;;;9.60
13427;BMP180;6785;57.918;12.530;2023-06-10T02:14:12;101389.00;;;9.50
13427;BMP180;6785;57.918;12.530;2023-06-10T02:16:39;101388.00;;;9.50
13427;BMP180;6785;57.918;12.530;2023-06-10T02:19:07;101389.00;;;9.60
13427;BMP180;6785;57.918;12.530;2023-06-10T02:21:34;101397.00;;;9.50
13427;BMP180;6785;57.918;12.530;2023-06-10T02:24:01;101397.00;;;9.60
13427;BMP180;6785;57.918;12.530;2023-06-10T02:26:28;101398.00;;;9.60
13427;BMP180;6785;57.918;12.530;2023-06-10T02:28:57;101399.00;;;9.60
13427;BMP180;6785;57.918;12.530;2023-06-10T02:31:24;101395.00;;;9.60
13427;BMP180;6785;57.918;12.530;2023-06-10T02:33:51;101401.00;;;9.60
13427;BMP180;6785;57.918;12.530;2023-06-10T02:36:18;101399.00;;;9.60
13427;BMP180;6785;57.918;12.530;2023-06-10T02:38:47;101399.00;;;9.60
13427;BMP180;6785;57.918;12.530;2023-06-10T02:41:14;101398.00;;;9.60
13427;BMP180;6785;57.918;12.530;2023-06-10T02:43:41;101408.00;;;9.50
13427;BMP180;6785;57.918;12.530;2023-06-10T02:46:10;101411.00;;;9.50
13427;BMP180;6785;57.918;12.530;2023-06-10T02:48:41;101407.00;;;9.50
13427;BMP180;6785;57.918;12.530;2023-06-10T02:51:09;101408.00;;;9.50
13427;BMP180;6785;57.918;12.530;2023-06-10T02:53:36;101417.00;;;9.50
13427;BMP180;6785;57.918;12.530;2023-06-10T02:56:03;101417.00;;;9.40
13427;BMP180;6785;57.918;12.530;2023-06-10T02:58:30;101409.00;;;9.40
13427;BMP180;6785;57.918;12.530;2023-06-10T03:00:58;101419.00;;;9.40
13427;BMP180;6785;57.918;12.530;2023-06-10T03:03:26;101410.00;;;9.40
13427;BMP180;6785;57.918;12.530;2023-06-10T03:05:53;101415.00;;;9.40
13427;BMP180;6785;57.918;12.530;2023-06-10T03:08:20;101410.00;;;9.50
13427;BMP180;6785;57.918;12.530;2023-06-10T03:10:47;101411.00;;;9.50
13427;BMP180;6785;57.918;12.530;2023-06-10T03:13:14;101413.00;;;9.50
13427;BMP180;6785;57.918;12.530;2023-06-10T03:15:41;101408.00;;;9.50
13427;BMP180;6785;57.918;12.530;2023-06-10T03:18:08;101406.00;;;9.50
13427;BMP180;6785;57.918;12.530;2023-06-10T03:20:36;101412.00;;;9.50
13427;BMP180;6785;57.918;12.530;2023-06-10T03:23:04;101401.00;;;9.40
13427;BMP180;6785;57.918;12.530;2023-06-10T03:25:32;101407.00;;;9.40
13427;BMP180;6785;57.918;12.530;2023-06-10T03:27:59;101399.00;;;9.30
13427;BMP180;6785;57.918;12.530;2023-06-10T03:30:27;101408.00;;;9.40
13427;BMP180;6785;57.918;12.530;2023-06-10T03:32:54;101410.00;;;9.40
13427;BMP180;6785;57.918;12.530;2023-06-10T03:35:21;101414.00;;;9.40
13427;BMP180;6785;57.918;12.530;2023-06-10T03:37:49;101407.00;;;9.40
13427;BMP180;6785;57.918;12.530;2023-06-10T03:40:16;101416.00;;;9.60
13427;BMP180;6785;57.918;12.530;2023-06-10T03:42:44;101412.00;;;9.60
13427;BMP180;6785;57.918;12.530;2023-06-10T03:45:11;101415.00;;;9.60
13427;BMP180;6785;57.918;12.530;2023-06-10T03:47:38;101432.00;;;9.80
13427;BMP180;6785;57.918;12.530;2023-06-10T03:50:08;101426.00;;;9.90
13427;BMP180;6785;57.918;12.530;2023-06-10T03:52:37;101427.00;;;10.00
13427;BMP180;6785;57.918;12.530;2023-06-10T03:55:07;101433.00;;;10.00
13427;BMP180;6785;57.918;12.530;2023-06-10T03:57:34;101429.00;;;10.10
13427;BMP180;6785;57.918;12.530;2023-06-10T04:00:03;101420.00;;;10.20
13427;BMP180;6785;57.918;12.530;2023-06-10T04:02:34;101426.00;;;10.20
13427;BMP180;6785;57.918;12.530;2023-06-10T04:05:00;101422.00;;;10.20
13427;BMP180;6785;57.918;12.530;2023-06-10T04:07:28;101430.00;;;10.20
13427;BMP180;6785;57.918;12.530;2023-06-10T04:09:56;101428.00;;;10.30
13427;BMP180;6785;57.918;12.530;2023-06-10T04:12:24;74811.00;;;10.30
13427;BMP180;6785;57.918;12.530;2023-06-10T04:14:51;101427.00;;;10.50
13427;BMP180;6785;57.918;12.530;2023-06-10T04:17:18;101423.00;;;10.50
13427;BMP180;6785;57.918;12.530;2023-06-10T04:19:46;236358.00;;;211.90
13427;BMP180;6785;57.918;12.530;2023-06-10T04:22:13;236358.00;;;211.90
13427;BMP180;6785;57.918;12.530;2023-06-10T04:24:40;101413.00;;;10.60
13427;BMP180;6785;57.918;12.530;2023-06-10T04:27:08;236358.00;;;211.90
13427;BMP180;6785;57.918;12.530;2023-06-10T04:29:37;236358.00;;;211.90
13427;BMP180;6785;57.918;12.530;2023-06-10T04:32:05;236358.00;;;211.90
13427;BMP180;6785;57.918;12.530;2023-06-10T04:34:33;236358.00;;;211.90
13427;BMP180;6785;57.918;12.530;2023-06-10T04:36:59;236358.00;;;211.90
13427;BMP180;6785;57.918;12.530;2023-06-10T04:39:27;236358.00;;;211.90
13427;BMP180;6785;57.918;12.530;2023-06-10T04:41:54;236358.00;;;211.90
13427;BMP180;6785;57.918;12.530;2023-06-10T04:44:21;236358.00;;;211.90
13427;BMP180;6785;57.918;12.530;2023-06-10T04:46:49;236358.00;;;211.90
13427;BMP180;6785;57.918;12.530;2023-06-10T04:49:16;166594.00;;;11.20
13427;BMP180;6785;57.918;12.530;2023-06-10T04:51:43;236358.00;;;211.90
13427;BMP180;6785;57.918;12.530;2023-06-10T04:54:10;236358.00;;;211.90
13427;BMP180;6785;57.918;12.530;2023-06-10T04:56:37;236358.00;;;211.90
13427;BMP180;6785;57.918;12.530;2023-06-10T04:59:05;236358.00;;;211.90
13427;BMP180;6785;57.918;12.530;2023-06-10T05:01:32;236358.00;;;211.90
13427;BMP180;6785;57.918;12.530;2023-06-10T05:04:00;236358.00;;;211.90
13427;BMP180;6785;57.918;12.530;2023-06-10T05:06:27;236358.00;;;211.90
13427;BMP180;6785;57.918;12.530;2023-06-10T05:08:54;236358.00;;;211.90
13427;BMP180;6785;57.918;12.530;2023-06-10T05:11:21;236358.00;;;211.90
13427;BMP180;6785;57.918;12.530;2023-06-10T05:13:48;236358.00;;;211.90
13427;BMP180;6785;57.918;12.530;2023-06-10T05:16:15;236358.00;;;211.90
13427;BMP180;6785;57.918;12.530;2023-06-10T05:18:43;236358.00;;;211.90
13427;BMP180;6785;57.918;12.530;2023-06-10T05:21:11;236358.00;;;211.90
13427;BMP180;6785;57.918;12.530;2023-06-10T05:23:38;236358.00;;;211.90
13427;BMP180;6785;57.918;12.530;2023-06-10T05:26:05;236358.00;;;211.90
13427;BMP180;6785;57.918;12.530;2023-06-10T05:28:32;236358.00;;;211.90
13427;BMP180;6785;57.918;12.530;2023-06-10T05:30:59;236358.00;;;211.90
13427;BMP180;6785;57.918;12.530;2023-06-10T05:33:26;236358.00;;;211.90
13427;BMP180;6785;57.918;12.530;2023-06-10T05:35:53;236358.00;;;211.90
13427;BMP180;6785;57.918;12.530;2023-06-10T05:38:21;236358.00;;;211.90
13427;BMP180;6785;57.918;12.530;2023-06-10T05:40:48;236358.00;;;211.90
13427;BMP180;6785;57.918;12.530;2023-06-10T05:43:15;236358.00;;;211.90
13427;BMP180;6785;57.918;12.530;2023-06-10T05:45:43;236358.00;;;211.90
13427;BMP180;6785;57.918;12.530;2023-06-10T05:48:10;236358.00;;;211.90
13427;BMP180;6785;57.918;12.530;2023-06-10T05:50:37;236358.00;;;211.90
13427;BMP180;6785;57.918;12.530;2023-06-10T05:53:05;236358.00;;;211.90
13427;BMP180;6785;57.918;12.530;2023-06-10T05:55:35;236358.00;;;211.90
13427;BMP180;6785;57.918;12.530;2023-06-10T05:58:03;236358.00;;;211.90
13427;BMP180;6785;57.918;12.530;2023-06-10T06:00:30;236358.00;;;211.90
13427;BMP180;6785;57.918;12.530;2023-06-10T06:02:57;236358.00;;;211.90
13427;BMP180;6785;57.918;12.530;2023-06-10T06:05:24;236358.00;;;211.90
13427;BMP180;6785;57.918;12.530;2023-06-10T06:07:51;236358.00;;;211.90
13427;BMP180;6785;57.918;12.530;2023-06-10T06:10:19;236358.00;;;211.90
13427;BMP180;6785;57.918;12.530;2023-06-10T06:12:47;236358.00;;;211.90
13427;BMP180;6785;57.918;12.530;2023-06-10T06:15:14;236358.00;;;211.90
13427;BMP180;6785;57.918;12.530;2023-06-10T06:17:41;73776.00;;;15.90
13427;BMP180;6785;57.918;12.530;2023-06-10T06:20:08;101464.00;;;16.00
13427;BMP180;6785;57.918;12.530;2023-06-10T06:22:35;236358.00;;;211.90
13427;BMP180;6785;57.918;12.530;2023-06-10T06:25:03;236358.00;;;211.90
13427;BMP180;6785;57.918;12.530;2023-06-10T06:27:30;236358.00;;;211.90
13427;BMP180;6785;57.918;12.530;2023-06-10T06:29:59;236358.00;;;211.90
13427;BMP180;6785;57.918;12.530;2023-06-10T06:32:26;236358.00;;;211.90
13427;BMP180;6785;57.918;12.530;2023-06-10T06:34:53;236358.00;;;211.90
13427;BMP180;6785;57.918;12.530;2023-06-10T06:37:21;236358.00;;;211.90
13427;BMP180;6785;57.918;12.530;2023-06-10T06:39:49;101053.00;;;17.40
13427;BMP180;6785;57.918;12.530;2023-06-10T06:42:17;236358.00;;;211.90
13427;BMP180;6785;57.918;12.530;2023-06-10T06:44:44;236358.00;;;211.90
13427;BMP180;6785;57.918;12.530;2023-06-10T06:47:12;236358.00;;;211.90
13427;BMP180;6785;57.918;12.530;2023-06-10T06:49:39;236358.00;;;211.90
13427;BMP180;6785;57.918;12.530;2023-06-10T06:52:07;236358.00;;;211.90
13427;BMP180;6785;57.918;12.530;2023-06-10T06:54:34;236358.00;;;211.90
13427;BMP180;6785;57.918;12.530;2023-06-10T06:57:01;236358.00;;;211.90
13427;BMP180;6785;57.918;12.530;2023-06-10T06:59:29;236358.00;;;211.90
13427;BMP180;6785;57.918;12.530;2023-06-10T07:01:56;236358.00;;;211.90
13427;BMP180;6785;57.918;12.530;2023-06-10T07:04:26;236358.00;;;211.90
13427;BMP180;6785;57.918;12.530;2023-06-10T07:06:52;236358.00;;;211.90
13427;BMP180;6785;57.918;12.530;2023-06-10T07:09:19;236358.00;;;211.90
13427;BMP180;6785;57.918;12.530;2023-06-10T07:11:46;73102.00;;;18.80
13427;BMP180;6785;57.918;12.530;2023-06-10T07:14:16;236358.00;;;211.90
13427;BMP180;6785;57.918;12.530;2023-06-10T07:16:43;101380.00;;;19.10
13427;BMP180;6785;57.918;12.530;2023-06-10T07:19:11;236358.00;;;211.90
13427;BMP180;6785;57.918;12.530;2023-06-10T07:21:40;236358.00;;;211.90
13427;BMP180;6785;57.918;12.530;2023-06-10T07:24:07;236358.00;;;211.90
13427;BMP180;6785;57.918;12.530;2023-06-10T07:26:34;236358.00;;;211.90
13427;BMP180;6785;57.918;12.530;2023-06-10T07:29:02;101233.00;;;19.80
13427;BMP180;6785;57.918;12.530;2023-06-10T07:31:29;236358.00;;;211.90
13427;BMP180;6785;57.918;12.530;2023-06-10T07:33:56;236358.00;;;211.90
13427;BMP180;6785;57.918;12.530;2023-06-10T07:36:23;236358.00;;;211.90
13427;BMP180;6785;57.918;12.530;2023-06-10T07:38:54;236358.00;;;211.90
13427;BMP180;6785;57.918;12.530;2023-06-10T07:41:22;236358.00;;;211.90
13427;BMP180;6785;57.918;12.530;2023-06-10T07:43:50;236358.00;;;211.90
13427;BMP180;6785;57.918;12.530;2023-06-10T07:46:20;101432.00;;;19.80
13427;BMP180;6785;57.918;12.530;2023-06-10T07:48:47;101400.00;;;19.50
13427;BMP180;6785;57.918;12.530;2023-06-10T07:51:16;172763.00;;;-87.10
13427;BMP180;6785;57.918;12.530;2023-06-10T07:53:43;101405.00;;;20.00
13427;BMP180;6785;57.918;12.530;2023-06-10T07:56:11;101393.00;;;20.60
13427;BMP180;6785;57.918;12.530;2023-06-10T07:58:38;236358.00;;;211.90
13427;BMP180;6785;57.918;12.530;2023-06-10T08:01:05;236358.00;;;211.90
13427;BMP180;6785;57.918;12.530;2023-06-10T08:03:33;236358.00;;;211.90
13427;BMP180;6785;57.918;12.530;2023-06-10T08:06:00;101296.00;;;20.90
13427;BMP180;6785;57.918;12.530;2023-06-10T08:08:27;101389.00;;;21.10
13427;BMP180;6785;57.918;12.530;2023-06-10T08:10:53;236358.00;;;211.90
13427;BMP180;6785;57.918;12.530;2023-06-10T08:13:22;236358.00;;;211.90
13427;BMP180;6785;57.918;12.530;2023-06-10T08:15:49;236358.00;;;211.90
13427;BMP180;6785;57.918;12.530;2023-06-10T08:18:19;236358.00;;;211.90
13427;BMP180;6785;57.918;12.530;2023-06-10T08:20:46;236358.00;;;211.90
13427;BMP180;6785;57.918;12.530;2023-06-10T08:23:14;236358.00;;;211.90
13427;BMP180;6785;57.918;12.530;2023-06-10T08:25:41;236358.00;;;211.90
13427;BMP180;6785;57.918;12.530;2023-06-10T08:28:08;101526.00;;;20.50
13427;BMP180;6785;57.918;12.530;2023-06-10T08:30:37;101393.00;;;20.90
13427;BMP180;6785;57.918;12.530;2023-06-10T08:33:04;101391.00;;;21.10
13427;BMP180;6785;57.918;12.530;2023-06-10T08:35:31;101371.00;;;21.40
13427;BMP180;6785;57.918;12.530;2023-06-10T08:37:58;101377.00;;;21.40
13427;BMP180;6785;57.918;12.530;2023-06-10T08:40:25;101382.00;;;21.40
13427;BMP180;6785;57.918;12.530;2023-06-10T08:43:00;72259.00;;;21.40
13427;BMP180;6785;57.918;12.530;2023-06-10T08:45:31;330993.00;;;21.30
13427;BMP180;6785;57.918;12.530;2023-06-10T08:47:59;236358.00;;;211.90
13427;BMP180;6785;57.918;12.530;2023-06-10T08:50:28;236358.00;;;211.90
13427;BMP180;6785;57.918;12.530;2023-06-10T08:52:59;72539.00;;;21.10
13427;BMP180;6785;57.918;12.530;2023-06-10T08:55:31;236358.00;;;211.90
13427;BMP180;6785;57.918;12.530;2023-06-10T08:58:00;236358.00;;;211.90
13427;BMP180;6785;57.918;12.530;2023-06-10T09:00:29;236358.00;;;211.90
13427;BMP180;6785;57.918;12.530;2023-06-10T09:02:57;236358.00;;;211.90
13427;BMP180;6785;57.918;12.530;2023-06-10T09:05:28;236358.00;;;211.90
13427;BMP180;6785;57.918;12.530;2023-06-10T09:07:57;236358.00;;;211.90
13427;BMP180;6785;57.918;12.530;2023-06-10T09:10:26;236358.00;;;211.90
13427;BMP180;6785;57.918;12.530;2023-06-10T09:12:53;126511.00;;;-87.10
13427;BMP180;6785;57.918;12.530;2023-06-10T09:15:21;101406.00;;;21.00
13427;BMP180;6785;57.918;12.530;2023-06-10T09:17:48;236358.00;;;211.90
13427;BMP180;6785;57.918;12.530;2023-06-10T09:20:15;236358.00;;;211.90
13427;BMP180;6785;57.918;12.530;2023-06-10T09:22:44;236358.00;;;211.90
13427;BMP180;6785;57.918;12.530;2023-06-10T09:25:12;236358.00;;;211.90
13427;BMP180;6785;57.918;12.530;2023-06-10T09:27:47;236358.00;;;211.90
13427;BMP180;6785;57.918;12.530;2023-06-10T09:30:26;236358.00;;;211.90
13427;BMP180;6785;57.918;12.530;2023-06-10T09:32:55;236358.00;;;211.90
13427;BMP180;6785;57.918;12.530;2023-06-10T09:35:23;236358.00;;;211.90
13427;BMP180;6785;57.918;12.530;2023-06-10T09:37:59;236358.00;;;211.90
13427;BMP180;6785;57.918;12.530;2023-06-10T09:40:28;72518.00;;;93.30
13427;BMP180;6785;57.918;12.530;2023-06-10T09:42:57;101397.00;;;21.50
13427;BMP180;6785;57.918;12.530;2023-06-10T09:45:30;236358.00;;;211.90
13427;BMP180;6785;57.918;12.530;2023-06-10T09:47:57;236358.00;;;211.90
13427;BMP180;6785;57.918;12.530;2023-06-10T09:50:25;236358.00;;;211.90
13427;BMP180;6785;57.918;12.530;2023-06-10T09:52:53;236358.00;;;211.90
13427;BMP180;6785;57.918;12.530;2023-06-10T09:55:20;236358.00;;;211.90
13427;BMP180;6785;57.918;12.530;2023-06-10T10:00:27;236358.00;;;211.90
13427;BMP180;6785;57.918;12.530;2023-06-10T10:02:54;236358.00;;;211.90
13427;BMP180;6785;57.918;12.530;2023-06-10T10:05:22;236358.00;;;211.90
13427;BMP180;6785;57.918;12.530;2023-06-10T10:07:50;236358.00;;;211.90
13427;BMP180;6785;57.918;12.530;2023-06-10T10:10:20;236358.00;;;211.90
13427;BMP180;6785;57.918;12.530;2023-06-10T10:12:52;236358.00;;;211.90
13427;BMP180;6785;57.918;12.530;2023-06-10T10:15:29;236358.00;;;211.90
13427;BMP180;6785;57.918;12.530;2023-06-10T10:18:06;236358.00;;;211.90
13427;BMP180;6785;57.918;12.530;2023-06-10T10:20:41;236358.00;;;211.90
13427;BMP180;6785;57.918;12.530;2023-06-10T10:23:14;236358.00;;;211.90
13427;BMP180;6785;57.918;12.530;2023-06-10T10:25:49;236358.00;;;211.90
13427;BMP180;6785;57.918;12.530;2023-06-10T10:28:21;236358.00;;;211.90
13427;BMP180;6785;57.918;12.530;2023-06-10T10:30:59;236358.00;;;211.90
13427;BMP180;6785;57.918;12.530;2023-06-10T10:33:38;236358.00;;;211.90
13427;BMP180;6785;57.918;12.530;2023-06-10T10:36:07;236358.00;;;211.90
13427;BMP180;6785;57.918;12.530;2023-06-10T10:38:36;236358.00;;;211.90
13427;BMP180;6785;57.918;12.530;2023-06-10T10:41:05;236358.00;;;211.90
13427;BMP180;6785;57.918;12.530;2023-06-10T10:43:33;236358.00;;;211.90
13427;BMP180;6785;57.918;12.530;2023-06-10T10:46:03;236358.00;;;211.90
13427;BMP180;6785;57.918;12.530;2023-06-10T10:48:38;236358.00;;;211.90
13427;BMP180;6785;57.918;12.530;2023-06-10T10:51:07;236358.00;;;211.90
13427;BMP180;6785;57.918;12.530;2023-06-10T10:53:34;236358.00;;;211.90
13427;BMP180;6785;57.918;12.530;2023-06-10T10:56:07;236358.00;;;211.90
13427;BMP180;6785;57.918;12.530;2023-06-10T10:58:35;236358.00;;;211.90
13427;BMP180;6785;57.918;12.530;2023-06-10T11:01:11;236358.00;;;211.90
13427;BMP180;6785;57.918;12.530;2023-06-10T11:03:43;236358.00;;;211.90
13427;BMP180;6785;57.918;12.530;2023-06-10T11:06:14;236358.00;;;211.90
13427;BMP180;6785;57.918;12.530;2023-06-10T11:08:50;236358.00;;;211.90
13427;BMP180;6785;57.918;12.530;2023-06-10T11:11:23;236358.00;;;211.90
13427;BMP180;6785;57.918;12.530;2023-06-10T11:14:10;236358.00;;;211.90
13427;BMP180;6785;57.918;12.530;2023-06-10T11:16:42;236358.00;;;211.90
13427;BMP180;6785;57.918;12.530;2023-06-10T11:19:09;236358.00;;;211.90
13427;BMP180;6785;57.918;12.530;2023-06-10T11:21:58;236358.00;;;211.90
13427;BMP180;6785;57.918;12.530;2023-06-10T11:24:26;236358.00;;;211.90
13427;BMP180;6785;57.918;12.530;2023-06-10T11:26:54;236358.00;;;211.90
13427;BMP180;6785;57.918;12.530;2023-06-10T11:29:21;236358.00;;;211.90
13427;BMP180;6785;57.918;12.530;2023-06-10T11:31:52;236358.00;;;211.90
13427;BMP180;6785;57.918;12.530;2023-06-10T11:34:25;236358.00;;;211.90
13427;BMP180;6785;57.918;12.530;2023-06-10T11:36:53;236358.00;;;211.90
13427;BMP180;6785;57.918;12.530;2023-06-10T11:39:23;236358.00;;;211.90
13427;BMP180;6785;57.918;12.530;2023-06-10T11:41:54;236358.00;;;211.90
13427;BMP180;6785;57.918;12.530;2023-06-10T11:44:21;236358.00;;;211.90
13427;BMP180;6785;57.918;12.530;2023-06-10T11:46:49;236358.00;;;211.90
13427;BMP180;6785;57.918;12.530;2023-06-10T11:49:17;236358.00;;;211.90
13427;BMP180;6785;57.918;12.530;2023-06-10T11:51:44;236358.00;;;211.90
13427;BMP180;6785;57.918;12.530;2023-06-10T11:54:15;236358.00;;;211.90
13427;BMP180;6785;57.918;12.530;2023-06-10T11:56:43;236358.00;;;211.90
13427;BMP180;6785;57.918;12.530;2023-06-10T11:59:12;236358.00;;;211.90
13427;BMP180;6785;57.918;12.530;2023-06-10T12:01:44;236358.00;;;211.90
13427;BMP180;6785;57.918;12.530;2023-06-10T12:04:13;236358.00;;;211.90
13427;BMP180;6785;57.918;12.530;2023-06-10T12:06:42;236358.00;;;211.90
13427;BMP180;6785;57.918;12.530;2023-06-10T12:09:18;236358.00;;;211.90
13427;BMP180;6785;57.918;12.530;2023-06-10T12:11:48;236358.00;;;211.90
13427;BMP180;6785;57.918;12.530;2023-06-10T12:14:53;236358.00;;;211.90
13427;BMP180;6785;57.918;12.530;2023-06-10T12:17:24;236358.00;;;211.90
13427;BMP180;6785;57.918;12.530;2023-06-10T12:19:51;236358.00;;;211.90
13427;BMP180;6785;57.918;12.530;2023-06-10T12:22:18;236358.00;;;211.90
13427;BMP180;6785;57.918;12.530;2023-06-10T12:24:58;236358.00;;;211.90
13427;BMP180;6785;57.918;12.530;2023-06-10T12:27:26;236358.00;;;211.90
13427;BMP180;6785;57.918;12.530;2023-06-10T12:29:58;236358.00;;;211.90
13427;BMP180;6785;57.918;12.530;2023-06-10T12:32:36;236358.00;;;211.90
13427;BMP180;6785;57.918;12.530;2023-06-10T12:35:06;236358.00;;;211.90
13427;BMP180;6785;57.918;12.530;2023-06-10T12:37:33;236358.00;;;211.90
13427;BMP180;6785;57.918;12.530;2023-06-10T12:40:01;236358.00;;;211.90
13427;BMP180;6785;57.918;12.530;2023-06-10T12:42:29;236358.00;;;211.90
13427;BMP180;6785;57.918;12.530;2023-06-10T12:44:59;236358.00;;;211.90
13427;BMP180;6785;57.918;12.530;2023-06-10T12:47:30;236358.00;;;211.90
13427;BMP180;6785;57.918;12.530;2023-06-10T12:49:58;236358.00;;;211.90
13427;BMP180;6785;57.918;12.530;2023-06-10T12:52:26;236358.00;;;211.90
13427;BMP180;6785;57.918;12.530;2023-06-10T12:54:53;236358.00;;;211.90
13427;BMP180;6785;57.918;12.530;2023-06-10T12:57:20;236358.00;;;211.90
13427;BMP180;6785;57.918;12.530;2023-06-10T12:59:47;236358.00;;;211.90
13427;BMP180;6785;57.918;12.530;2023-06-10T13:02:20;236358.00;;;211.90
13427;BMP180;6785;57.918;12.530;2023-06-10T13:04:49;236358.00;;;211.90
13427;BMP180;6785;57.918;12.530;2023-06-10T13:07:16;236358.00;;;211.90
13427;BMP180;6785;57.918;12.530;2023-06-10T13:09:44;236358.00;;;211.90
13427;BMP180;6785;57.918;12.530;2023-06-10T13:12:14;236358.00;;;211.90
13427;BMP180;6785;57.918;12.530;2023-06-10T13:14:43;236358.00;;;211.90
13427;BMP180;6785;57.918;12.530;2023-06-10T13:17:10;236358.00;;;211.90
13427;BMP180;6785;57.918;12.530;2023-06-10T13:19:39;236358.00;;;211.90
13427;BMP180;6785;57.918;12.530;2023-06-10T13:22:06;236358.00;;;211.90
13427;BMP180;6785;57.918;12.530;2023-06-10T13:24:33;236358.00;;;211.90
13427;BMP180;6785;57.918;12.530;2023-06-10T13:27:00;236358.00;;;211.90
13427;BMP180;6785;57.918;12.530;2023-06-10T13:29:27;236358.00;;;211.90
13427;BMP180;6785;57.918;12.530;2023-06-10T13:31:55;236358.00;;;211.90
13427;BMP180;6785;57.918;12.530;2023-06-10T13:34:22;236358.00;;;211.90
13427;BMP180;6785;57.918;12.530;2023-06-10T13:36:50;236358.00;;;211.90
13427;BMP180;6785;57.918;12.530;2023-06-10T13:39:17;236358.00;;;211.90
13427;BMP180;6785;57.918;12.530;2023-06-10T13:41:44;236358.00;;;211.90
13427;BMP180;6785;57.918;12.530;2023-06-10T13:44:11;236358.00;;;211.90
13427;BMP180;6785;57.918;12.530;2023-06-10T13:46:38;236358.00;;;211.90
13427;BMP180;6785;57.918;12.530;2023-06-10T13:49:04;236358.00;;;211.90
13427;BMP180;6785;57.918;12.530;2023-06-10T13:51:31;236358.00;;;211.90
13427;BMP180;6785;57.918;12.530;2023-06-10T13:53:59;236358.00;;;211.90
13427;BMP180;6785;57.918;12.530;2023-06-10T13:56:26;236358.00;;;211.90
13427;BMP180;6785;57.918;12.530;2023-06-10T13:58:53;236358.00;;;211.90
13427;BMP180;6785;57.918;12.530;2023-06-10T14:01:21;236358.00;;;211.90
13427;BMP180;6785;57.918;12.530;2023-06-10T14:03:48;236358.00;;;211.90